createdAt,value
2023-03-10T00:00:05.555Z,50.0
2023-03-10T00:02:03.344Z,50.0
2023-03-10T00:04:03.844Z,47.0
2023-03-10T00:06:03.486Z,48.0
2023-03-10T00:08:02.899Z,47.0
2023-03-10T00:10:02.733Z,47.0
2023-03-10T00:12:03.357Z,50.0
2023-03-10T00:14:02.753Z,52.0
2023-03-10T00:16:04.129Z,52.0
2023-03-10T00:18:02.642Z,51.0
2023-03-10T00:20:07.533Z,46.0
2023-03-10T00:22:03.541Z,49.0
2023-03-10T00:24:02.708Z,44.0
2023-03-10T00:26:02.881Z,52.0
2023-03-10T00:28:03.651Z,51.0
2023-03-10T00:30:03.657Z,51.0
2023-03-10T00:32:02.914Z,54.0
2023-03-10T00:34:03.724Z,55.0
2023-03-10T00:36:07.830Z,53.0
2023-03-10T00:38:03.509Z,54.0
2023-03-10T00:40:06.070Z,53.0
2023-03-10T00:42:02.695Z,53.0
2023-03-10T00:44:04.306Z,54.0
2023-03-10T00:46:03.420Z,50.0
2023-03-10T00:48:02.694Z,55.0
2023-03-10T00:50:03.469Z,54.0
2023-03-10T00:52:03.557Z,54.0
2023-03-10T00:54:03.736Z,52.0
2023-03-10T00:56:04.890Z,50.0
2023-03-10T00:58:02.754Z,52.0
2023-03-10T01:00:06.098Z,51.0
2023-03-10T01:02:03.004Z,54.0
2023-03-10T01:04:05.700Z,51.0
2023-03-10T01:06:03.208Z,49.0
2023-03-10T01:08:02.917Z,50.0
2023-03-10T01:10:03.371Z,52.0
2023-03-10T01:12:02.844Z,56.0
2023-03-10T01:14:05.656Z,56.0
2023-03-10T01:16:02.988Z,56.0
2023-03-10T01:18:04.147Z,57.0
2023-03-10T01:20:06.151Z,57.0
2023-03-10T01:22:02.695Z,56.0
2023-03-10T01:24:04.135Z,57.0
2023-03-10T01:26:02.953Z,52.0
2023-03-10T01:28:02.898Z,53.0
2023-03-10T01:30:02.788Z,51.0
2023-03-10T01:32:02.909Z,53.0
2023-03-10T01:34:02.789Z,55.0
2023-03-10T01:36:07.031Z,53.0
2023-03-10T01:38:03.462Z,54.0
2023-03-10T01:40:08.300Z,52.0
2023-03-10T01:42:02.660Z,54.0
2023-03-10T01:44:04.518Z,53.0
2023-03-10T01:46:21.780Z,53.0
2023-03-10T01:48:02.655Z,58.0
2023-03-10T01:50:04.730Z,58.0
2023-03-10T01:52:08.894Z,58.0
2023-03-10T01:54:06.850Z,57.0
2023-03-10T01:56:05.966Z,54.0
2023-03-10T01:58:05.008Z,53.0
2023-03-10T02:00:04.937Z,58.0
2023-03-10T02:02:04.523Z,56.0
2023-03-10T02:04:08.409Z,56.0
2023-03-10T02:06:09.015Z,55.0
2023-03-10T02:08:03.612Z,59.0
2023-03-10T02:10:04.755Z,58.0
2023-03-10T02:12:04.245Z,61.0
2023-03-10T02:14:05.915Z,59.0
2023-03-10T02:16:03.799Z,61.0
2023-03-10T02:18:05.842Z,62.0
2023-03-10T02:20:15.867Z,62.0
2023-03-10T02:22:06.871Z,61.0
2023-03-10T02:24:09.349Z,63.0
2023-03-10T02:26:12.969Z,62.0
2023-03-10T02:28:03.758Z,63.0
2023-03-10T02:30:08.079Z,62.0
2023-03-10T02:32:03.844Z,58.0
2023-03-10T02:34:06.208Z,64.0
2023-03-10T02:36:04.983Z,62.0
2023-03-10T02:38:03.305Z,55.0
2023-03-10T02:40:04.649Z,62.0
2023-03-10T02:42:02.832Z,64.0
2023-03-10T02:44:07.756Z,62.0
2023-03-10T02:46:05.189Z,61.0
2023-03-10T02:48:02.729Z,64.0
2023-03-10T02:50:03.755Z,61.0
2023-03-10T02:52:05.016Z,62.0
2023-03-10T02:54:03.548Z,63.0
2023-03-10T02:56:03.079Z,60.0
2023-03-10T02:58:03.358Z,61.0
2023-03-10T03:00:06.813Z,62.0
2023-03-10T03:02:02.991Z,62.0
2023-03-10T03:04:03.718Z,62.0
2023-03-10T03:06:03.237Z,65.0
2023-03-10T03:08:02.916Z,62.0
2023-03-10T03:10:02.801Z,66.0
2023-03-10T03:12:04.165Z,66.0
2023-03-10T03:14:03.263Z,65.0
2023-03-10T03:16:06.051Z,64.0
2023-03-10T03:18:04.745Z,64.0
2023-03-10T03:20:11.295Z,65.0
2023-03-10T03:22:03.289Z,65.0
2023-03-10T03:24:03.020Z,62.0
2023-03-10T03:26:02.747Z,62.0
2023-03-10T03:28:03.052Z,64.0
2023-03-10T03:30:04.994Z,65.0
2023-03-10T03:32:03.623Z,59.0
2023-03-10T03:34:02.666Z,64.0
2023-03-10T03:36:03.269Z,60.0
2023-03-10T03:38:03.748Z,61.0
2023-03-10T03:40:07.221Z,60.0
2023-03-10T03:42:03.397Z,58.0
2023-03-10T03:44:03.009Z,61.0
2023-03-10T03:46:03.999Z,64.0
2023-03-10T03:48:04.932Z,64.0
2023-03-10T03:50:04.357Z,63.0
2023-03-10T03:52:02.916Z,60.0
2023-03-10T03:54:02.680Z,60.0
2023-03-10T03:56:03.131Z,61.0
2023-03-10T03:58:03.303Z,60.0
2023-03-10T04:00:07.322Z,58.0
2023-03-10T04:02:02.989Z,62.0
2023-03-10T04:04:02.700Z,61.0
2023-03-10T04:06:03.342Z,60.0
2023-03-10T04:08:03.225Z,60.0
2023-03-10T04:10:02.741Z,60.0
2023-03-10T04:12:03.138Z,59.0
2023-03-10T04:14:03.853Z,60.0
2023-03-10T04:16:03.420Z,62.0
2023-03-10T04:18:02.752Z,63.0
2023-03-10T04:20:08.093Z,65.0
2023-03-10T04:22:03.697Z,64.0
2023-03-10T04:24:03.738Z,61.0
2023-03-10T04:26:07.637Z,64.0
2023-03-10T04:28:02.677Z,63.0
2023-03-10T04:30:02.720Z,62.0
2023-03-10T04:32:05.715Z,62.0
2023-03-10T04:34:03.031Z,58.0
2023-03-10T04:36:04.807Z,60.0
2023-03-10T04:38:03.836Z,60.0
2023-03-10T04:40:08.935Z,63.0
2023-03-10T04:42:02.678Z,63.0
2023-03-10T04:44:02.898Z,61.0
2023-03-10T04:46:03.007Z,61.0
2023-03-10T04:48:03.461Z,61.0
2023-03-10T04:50:04.136Z,62.0
2023-03-10T04:52:02.704Z,61.0
2023-03-10T04:54:03.721Z,61.0
2023-03-10T04:56:06.249Z,62.0
2023-03-10T04:58:02.744Z,60.0
2023-03-10T05:00:07.687Z,63.0
2023-03-10T05:02:03.088Z,65.0
2023-03-10T05:04:05.060Z,56.0
2023-03-10T05:06:02.731Z,60.0
2023-03-10T05:08:03.599Z,60.0
2023-03-10T05:10:04.687Z,65.0
2023-03-10T05:12:03.660Z,62.0
2023-03-10T05:14:03.306Z,64.0
2023-03-10T05:16:02.919Z,65.0
2023-03-10T05:18:02.673Z,65.0
2023-03-10T05:20:04.554Z,61.0
2023-03-10T05:22:04.873Z,62.0
2023-03-10T05:24:02.772Z,66.0
2023-03-10T05:26:04.680Z,64.0
2023-03-10T05:28:03.511Z,64.0
2023-03-10T05:30:05.109Z,60.0
2023-03-10T05:32:02.759Z,61.0
2023-03-10T05:34:02.870Z,62.0
2023-03-10T05:36:06.379Z,59.0
2023-03-10T05:38:03.077Z,60.0
2023-03-10T05:40:03.068Z,58.0
2023-03-10T05:42:03.673Z,58.0
2023-03-10T05:44:04.205Z,53.0
2023-03-10T05:46:03.856Z,56.0
2023-03-10T05:48:03.145Z,56.0
2023-03-10T05:50:02.765Z,57.0
2023-03-10T05:52:03.312Z,57.0
2023-03-10T05:54:05.643Z,57.0
2023-03-10T05:56:06.378Z,55.0
2023-03-10T05:58:02.902Z,58.0
2023-03-10T06:00:03.573Z,56.0
2023-03-10T06:02:02.895Z,54.0
2023-03-10T06:04:03.317Z,55.0
2023-03-10T06:06:04.711Z,58.0
2023-03-10T06:08:02.742Z,57.0
2023-03-10T06:10:02.897Z,57.0
2023-03-10T06:12:02.681Z,59.0
2023-03-10T06:14:03.967Z,62.0
2023-03-10T06:16:05.574Z,62.0
2023-03-10T06:18:03.413Z,58.0
2023-03-10T06:20:02.976Z,55.0
2023-03-10T06:22:02.871Z,61.0
2023-03-10T06:24:03.698Z,63.0
2023-03-10T06:26:06.573Z,58.0
2023-03-10T06:28:02.904Z,62.0
2023-03-10T06:30:02.717Z,59.0
2023-03-10T06:32:03.241Z,56.0
2023-03-10T06:34:04.548Z,61.0
2023-03-10T06:36:03.503Z,59.0
2023-03-10T06:38:03.215Z,55.0
2023-03-10T06:40:03.978Z,58.0
2023-03-10T06:42:02.739Z,58.0
2023-03-10T06:44:04.170Z,62.0
2023-03-10T06:46:05.375Z,62.0
2023-03-10T06:48:02.770Z,60.0
2023-03-10T06:50:05.517Z,63.0
2023-03-10T06:52:02.692Z,63.0
2023-03-10T06:54:02.679Z,61.0
2023-03-10T06:56:05.483Z,61.0
2023-03-10T06:58:03.612Z,58.0
2023-03-10T07:00:04.549Z,57.0
2023-03-10T07:02:03.461Z,60.0
2023-03-10T07:04:02.829Z,59.0
2023-03-10T07:06:02.780Z,57.0
2023-03-10T07:08:02.682Z,58.0
2023-03-10T07:10:08.035Z,61.0
2023-03-10T07:12:02.673Z,57.0
2023-03-10T07:14:03.457Z,55.0
2023-03-10T07:16:02.704Z,55.0
2023-03-10T07:18:02.699Z,52.0
2023-03-10T07:20:04.292Z,60.0
2023-03-10T07:22:03.058Z,60.0
2023-03-10T07:24:02.748Z,58.0
2023-03-10T07:26:07.531Z,59.0
2023-03-10T07:28:02.907Z,55.0
2023-03-10T07:30:02.809Z,54.0
2023-03-10T07:32:02.721Z,59.0
2023-03-10T07:34:03.680Z,57.0
2023-03-10T07:36:06.656Z,54.0
2023-03-10T07:38:03.538Z,57.0
2023-03-10T07:40:02.666Z,55.0
2023-03-10T07:42:02.699Z,53.0
2023-03-10T07:44:02.747Z,58.0
2023-03-10T07:46:06.882Z,54.0
2023-03-10T07:48:02.681Z,51.0
2023-03-10T07:50:03.451Z,52.0
2023-03-10T07:52:02.768Z,55.0
2023-03-10T07:54:02.674Z,53.0
2023-03-10T07:56:05.536Z,52.0
2023-03-10T07:58:03.118Z,51.0
2023-03-10T08:00:04.395Z,53.0
2023-03-10T08:02:03.920Z,55.0
2023-03-10T08:04:02.912Z,55.0
2023-03-10T08:06:05.068Z,55.0
2023-03-10T08:08:02.828Z,59.0
2023-03-10T08:10:03.286Z,57.0
2023-03-10T08:12:04.056Z,57.0
2023-03-10T08:14:03.689Z,52.0
2023-03-10T08:16:03.757Z,54.0
2023-03-10T08:18:05.041Z,55.0
2023-03-10T08:20:06.117Z,50.0
2023-03-10T08:22:03.192Z,55.0
2023-03-10T08:24:03.374Z,55.0
2023-03-10T08:26:05.763Z,56.0
2023-03-10T08:28:03.300Z,55.0
2023-03-10T08:30:03.365Z,56.0
2023-03-10T08:32:02.888Z,57.0
2023-03-10T08:34:03.731Z,55.0
2023-03-10T08:36:07.024Z,54.0
2023-03-10T08:38:04.098Z,53.0
2023-03-10T08:40:07.586Z,58.0
2023-03-10T08:42:02.683Z,54.0
2023-03-10T08:44:04.805Z,56.0
2023-03-10T08:46:02.945Z,55.0
2023-03-10T08:48:02.724Z,54.0
2023-03-10T08:50:03.698Z,57.0
2023-03-10T08:52:04.017Z,59.0
2023-03-10T08:54:03.920Z,55.0
2023-03-10T08:56:03.948Z,53.0
2023-03-10T08:58:02.850Z,51.0
2023-03-10T09:00:05.251Z,50.0
2023-03-10T09:02:02.847Z,52.0
2023-03-10T09:04:05.013Z,54.0
2023-03-10T09:06:03.281Z,53.0
2023-03-10T09:08:03.027Z,54.0
2023-03-10T09:10:04.830Z,55.0
2023-03-10T09:12:03.619Z,57.0
2023-03-10T09:14:03.861Z,56.0
2023-03-10T09:16:02.849Z,56.0
2023-03-10T09:18:02.712Z,58.0
2023-03-10T09:20:06.068Z,56.0
2023-03-10T09:22:02.865Z,58.0
2023-03-10T09:24:03.506Z,57.0
2023-03-10T09:26:02.748Z,59.0
2023-03-10T09:28:02.708Z,57.0
2023-03-10T09:30:02.932Z,53.0
2023-03-10T09:32:02.860Z,60.0
2023-03-10T09:34:03.146Z,54.0
2023-03-10T09:36:07.738Z,62.0
2023-03-10T09:38:03.338Z,55.0
2023-03-10T09:40:06.287Z,58.0
2023-03-10T09:42:35.789Z,59.0
2023-03-10T09:44:16.360Z,59.0
2023-03-10T09:46:12.778Z,61.0
2023-03-10T09:48:15.969Z,53.0
2023-03-10T09:50:19.499Z,56.0
2023-03-10T09:52:19.270Z,59.0
2023-03-10T09:54:17.486Z,57.0
2023-03-10T09:56:11.737Z,58.0
2023-03-10T09:58:04.077Z,57.0
2023-03-10T10:00:08.694Z,58.0
2023-03-10T10:02:15.512Z,60.0
2023-03-10T10:04:11.088Z,57.0
2023-03-10T10:06:06.538Z,59.0
2023-03-10T10:08:14.721Z,58.0
2023-03-10T10:10:09.045Z,57.0
2023-03-10T10:12:11.703Z,57.0
2023-03-10T10:14:27.784Z,63.0
2023-03-10T10:16:28.080Z,64.0
2023-03-10T10:18:19.753Z,61.0
2023-03-10T10:20:06.826Z,62.0
2023-03-10T10:22:10.669Z,64.0
2023-03-10T10:24:02.643Z,64.0
2023-03-10T10:26:11.279Z,64.0
2023-03-10T10:28:10.216Z,64.0
2023-03-10T10:30:21.809Z,66.0
2023-03-10T10:32:05.706Z,69.0
2023-03-10T10:34:17.916Z,70.0
2023-03-10T10:36:05.425Z,75.0
2023-03-10T10:38:05.672Z,74.0
2023-03-10T10:40:05.020Z,76.0
2023-03-10T10:42:13.460Z,77.0
2023-03-10T10:44:09.299Z,79.0
2023-03-10T10:46:06.950Z,81.0
2023-03-10T10:48:04.203Z,82.0
2023-03-10T10:50:22.556Z,83.0
2023-03-10T10:52:05.601Z,83.0
2023-03-10T10:54:14.454Z,83.0
2023-03-10T10:56:06.491Z,84.0
2023-03-10T10:58:06.192Z,86.0
2023-03-10T11:00:18.032Z,85.0
2023-03-10T11:02:14.644Z,87.0
2023-03-10T11:04:07.568Z,87.0
2023-03-10T11:06:15.129Z,87.0
2023-03-10T11:08:17.716Z,88.0
2023-03-10T11:10:10.314Z,88.0
2023-03-10T11:12:07.715Z,88.0
2023-03-10T11:14:21.197Z,88.0
2023-03-10T11:16:14.395Z,89.0
2023-03-10T11:18:12.719Z,89.0
2023-03-10T11:20:14.782Z,89.0
2023-03-10T11:22:14.716Z,89.0
2023-03-10T11:24:13.792Z,90.0
2023-03-10T11:26:12.246Z,90.0
2023-03-10T11:28:14.790Z,91.0
2023-03-10T11:30:12.049Z,91.0
2023-03-10T11:32:14.915Z,91.0
2023-03-10T11:34:17.336Z,91.0
2023-03-10T11:36:17.053Z,92.0
2023-03-10T11:38:11.758Z,92.0
2023-03-10T11:40:18.208Z,92.0
2023-03-10T11:42:10.419Z,91.0
2023-03-10T11:44:15.379Z,92.0
2023-03-10T11:46:13.272Z,92.0
2023-03-10T11:48:16.940Z,92.0
2023-03-10T11:50:14.920Z,92.0
2023-03-10T11:52:10.068Z,92.0
2023-03-10T11:54:11.482Z,92.0
2023-03-10T11:56:04.659Z,92.0
2023-03-10T11:58:05.685Z,92.0
2023-03-10T12:00:09.005Z,92.0
2023-03-10T12:02:12.136Z,92.0
2023-03-10T12:04:12.897Z,93.0
2023-03-10T12:06:06.385Z,93.0
2023-03-10T12:08:05.761Z,93.0
2023-03-10T12:10:13.698Z,93.0
2023-03-10T12:12:05.087Z,93.0
2023-03-10T12:14:03.663Z,93.0
2023-03-10T12:16:04.500Z,93.0
2023-03-10T12:18:04.805Z,93.0
2023-03-10T12:20:08.916Z,93.0
2023-03-10T12:22:21.907Z,93.0
2023-03-10T12:24:05.057Z,93.0
2023-03-10T12:26:02.861Z,93.0
2023-03-10T12:28:18.695Z,94.0
2023-03-10T12:30:21.728Z,93.0
2023-03-10T12:32:03.407Z,94.0
2023-03-10T12:34:13.916Z,94.0
2023-03-10T12:36:05.128Z,94.0
2023-03-10T12:38:21.727Z,94.0
2023-03-10T12:40:02.639Z,94.0
2023-03-10T12:42:04.086Z,94.0
2023-03-10T12:44:07.412Z,93.0
2023-03-10T12:46:04.732Z,93.0
2023-03-10T12:48:10.304Z,94.0
2023-03-10T12:50:16.328Z,94.0
2023-03-10T12:52:19.423Z,94.0
2023-03-10T12:54:15.626Z,94.0
2023-03-10T12:56:21.932Z,94.0
2023-03-10T12:58:14.648Z,94.0
2023-03-10T13:00:14.522Z,94.0
2023-03-10T13:02:09.772Z,94.0
2023-03-10T13:04:06.417Z,94.0
2023-03-10T13:06:06.425Z,95.0
2023-03-10T13:08:12.397Z,95.0
2023-03-10T13:10:04.280Z,95.0
2023-03-10T13:12:07.029Z,95.0
2023-03-10T13:14:10.313Z,95.0
2023-03-10T13:16:06.000Z,95.0
2023-03-10T13:18:17.251Z,95.0
2023-03-10T13:20:08.095Z,95.0
2023-03-10T13:22:04.564Z,95.0
2023-03-10T13:24:21.699Z,95.0
2023-03-10T13:26:06.874Z,95.0
2023-03-10T13:28:10.792Z,95.0
2023-03-10T13:30:12.415Z,95.0
2023-03-10T13:32:03.691Z,95.0
2023-03-10T13:34:13.024Z,95.0
2023-03-10T13:36:20.732Z,95.0
2023-03-10T13:38:09.159Z,95.0
2023-03-10T13:40:15.255Z,95.0
2023-03-10T13:42:11.242Z,95.0
2023-03-10T13:44:03.899Z,95.0
2023-03-10T13:46:09.061Z,95.0
2023-03-10T13:48:05.243Z,95.0
2023-03-10T13:50:03.744Z,95.0
2023-03-10T13:52:05.935Z,95.0
2023-03-10T13:54:18.337Z,95.0
2023-03-10T13:56:16.441Z,95.0
2023-03-10T13:58:04.996Z,95.0
2023-03-10T14:00:07.973Z,95.0
2023-03-10T14:02:05.160Z,95.0
2023-03-10T14:04:08.234Z,95.0
2023-03-10T14:06:13.409Z,95.0
2023-03-10T14:08:02.932Z,95.0
2023-03-10T14:10:14.479Z,95.0
2023-03-10T14:12:02.824Z,95.0
2023-03-10T14:14:07.523Z,95.0
2023-03-10T14:16:02.897Z,95.0
2023-03-10T14:18:19.653Z,95.0
2023-03-10T14:20:04.568Z,95.0
2023-03-10T14:22:03.021Z,95.0
2023-03-10T14:24:04.411Z,95.0
2023-03-10T14:26:10.371Z,95.0
2023-03-10T14:28:11.732Z,95.0
2023-03-10T14:30:14.364Z,95.0
2023-03-10T14:32:02.695Z,95.0
2023-03-10T14:34:02.918Z,95.0
2023-03-10T14:36:02.984Z,95.0
2023-03-10T14:38:02.927Z,95.0
2023-03-10T14:40:04.167Z,95.0
2023-03-10T14:42:03.896Z,95.0
2023-03-10T14:44:03.529Z,95.0
2023-03-10T14:46:04.892Z,95.0
2023-03-10T14:48:10.463Z,95.0
2023-03-10T14:50:03.062Z,95.0
2023-03-10T14:52:03.242Z,95.0
2023-03-10T14:54:03.084Z,95.0
2023-03-10T14:56:03.679Z,95.0
2023-03-10T14:58:04.497Z,95.0
2023-03-10T15:00:04.974Z,95.0
2023-03-10T15:02:08.358Z,95.0
2023-03-10T15:04:02.706Z,95.0
2023-03-10T15:06:02.720Z,95.0
2023-03-10T15:08:04.952Z,95.0
2023-03-10T15:10:11.253Z,95.0
2023-03-10T15:12:03.512Z,95.0
2023-03-10T15:14:03.600Z,96.0
2023-03-10T15:16:02.867Z,96.0
2023-03-10T15:18:02.725Z,96.0
2023-03-10T15:20:05.242Z,96.0
2023-03-10T15:22:03.623Z,96.0
2023-03-10T15:24:07.164Z,96.0
2023-03-10T15:26:09.078Z,96.0
2023-03-10T15:28:03.898Z,96.0
2023-03-10T15:30:03.606Z,96.0
2023-03-10T15:32:03.704Z,96.0
2023-03-10T15:34:02.872Z,96.0
2023-03-10T15:36:04.259Z,96.0
2023-03-10T15:38:03.825Z,96.0
2023-03-10T15:40:03.718Z,96.0
2023-03-10T15:42:02.727Z,96.0
2023-03-10T15:44:02.985Z,96.0
2023-03-10T15:46:07.405Z,96.0
2023-03-10T15:48:02.676Z,96.0
2023-03-10T15:50:02.905Z,96.0
2023-03-10T15:52:03.039Z,96.0
2023-03-10T15:54:02.819Z,96.0
2023-03-10T15:56:05.376Z,96.0
2023-03-10T15:58:03.203Z,96.0
2023-03-10T16:00:02.921Z,96.0
2023-03-10T16:02:03.693Z,96.0
2023-03-10T16:04:05.396Z,96.0
2023-03-10T16:06:02.717Z,96.0
2023-03-10T16:08:05.915Z,96.0
2023-03-10T16:10:03.733Z,96.0
2023-03-10T16:12:02.883Z,96.0
2023-03-10T16:14:04.005Z,96.0
2023-03-10T16:16:05.120Z,96.0
2023-03-10T16:18:03.283Z,96.0
2023-03-10T16:20:08.619Z,96.0
2023-03-10T16:22:03.560Z,95.0
2023-03-10T16:24:02.808Z,95.0
2023-03-10T16:26:04.054Z,95.0
2023-03-10T16:28:02.723Z,95.0
2023-03-10T16:30:03.239Z,95.0
2023-03-10T16:32:04.088Z,95.0
2023-03-10T16:34:02.865Z,95.0
2023-03-10T16:36:04.646Z,95.0
2023-03-10T16:38:02.856Z,95.0
2023-03-10T16:40:04.073Z,95.0
2023-03-10T16:42:04.174Z,95.0
2023-03-10T16:44:04.105Z,95.0
2023-03-10T16:46:08.122Z,95.0
2023-03-10T16:48:02.675Z,96.0
2023-03-10T16:50:03.062Z,95.0
2023-03-10T16:52:07.326Z,95.0
2023-03-10T16:54:05.646Z,95.0
2023-03-10T16:56:06.174Z,94.0
2023-03-10T16:58:02.925Z,95.0
2023-03-10T17:00:05.259Z,94.0
2023-03-10T17:02:04.311Z,94.0
2023-03-10T17:04:02.868Z,94.0
2023-03-10T17:06:02.881Z,94.0
2023-03-10T17:08:05.555Z,94.0
2023-03-10T17:10:03.116Z,94.0
2023-03-10T17:12:02.700Z,94.0
2023-03-10T17:14:06.938Z,94.0
2023-03-10T17:16:12.141Z,94.0
2023-03-10T17:18:03.416Z,94.0
2023-03-10T17:20:04.263Z,94.0
2023-03-10T17:22:02.942Z,94.0
2023-03-10T17:24:03.976Z,94.0
2023-03-10T17:26:02.997Z,95.0
2023-03-10T17:28:02.934Z,95.0
2023-03-10T17:30:03.585Z,94.0
2023-03-10T17:32:02.841Z,94.0
2023-03-10T17:34:06.464Z,94.0
2023-03-10T17:36:08.849Z,94.0
2023-03-10T17:38:03.305Z,94.0
2023-03-10T17:40:04.718Z,95.0
2023-03-10T17:42:03.070Z,95.0
2023-03-10T17:44:04.239Z,95.0
2023-03-10T17:46:05.101Z,94.0
2023-03-10T17:48:03.498Z,94.0
2023-03-10T17:50:02.959Z,94.0
2023-03-10T17:52:03.123Z,94.0
2023-03-10T17:54:03.607Z,94.0
2023-03-10T17:56:04.834Z,94.0
2023-03-10T17:58:02.869Z,94.0
2023-03-10T18:00:03.673Z,93.0
2023-03-10T18:02:03.771Z,93.0
2023-03-10T18:04:03.028Z,94.0
2023-03-10T18:06:03.599Z,94.0
2023-03-10T18:08:02.705Z,94.0
2023-03-10T18:10:03.513Z,93.0
2023-03-10T18:12:02.717Z,93.0
2023-03-10T18:14:04.379Z,93.0
2023-03-10T18:16:02.778Z,93.0
2023-03-10T18:18:02.680Z,93.0
2023-03-10T18:20:05.507Z,94.0
2023-03-10T18:22:05.242Z,92.0
2023-03-10T18:24:03.513Z,92.0
2023-03-10T18:26:07.549Z,92.0
2023-03-10T18:28:02.718Z,90.0
2023-03-10T18:30:02.761Z,92.0
2023-03-10T18:32:03.522Z,92.0
2023-03-10T18:34:04.289Z,92.0
2023-03-10T18:36:05.483Z,92.0
2023-03-10T18:38:03.502Z,92.0
2023-03-10T18:40:05.490Z,91.0
2023-03-10T18:42:02.684Z,92.0
2023-03-10T18:44:05.256Z,92.0
2023-03-10T18:46:02.943Z,89.0
2023-03-10T18:48:03.263Z,88.0
2023-03-10T18:50:03.217Z,89.0
2023-03-10T18:52:03.436Z,88.0
2023-03-10T18:54:02.700Z,88.0
2023-03-10T18:56:02.875Z,88.0
2023-03-10T18:58:02.968Z,88.0
2023-03-10T19:00:05.593Z,89.0
2023-03-10T19:02:03.686Z,89.0
2023-03-10T19:04:03.600Z,89.0
2023-03-10T19:06:03.615Z,90.0
2023-03-10T19:08:03.698Z,90.0
2023-03-10T19:10:03.927Z,89.0
2023-03-10T19:12:02.738Z,90.0
2023-03-10T19:14:04.971Z,90.0
2023-03-10T19:16:05.678Z,89.0
2023-03-10T19:18:02.703Z,89.0
2023-03-10T19:20:04.473Z,89.0
2023-03-10T19:22:02.856Z,88.0
2023-03-10T19:24:03.915Z,88.0
2023-03-10T19:26:03.765Z,86.0
2023-03-10T19:28:02.771Z,86.0
2023-03-10T19:30:02.666Z,86.0
2023-03-10T19:32:02.736Z,86.0
2023-03-10T19:34:02.966Z,86.0
2023-03-10T19:36:04.512Z,86.0
2023-03-10T19:38:03.505Z,85.0
2023-03-10T19:40:04.924Z,86.0
2023-03-10T19:42:02.790Z,87.0
2023-03-10T19:44:02.838Z,86.0
2023-03-10T19:46:05.875Z,86.0
2023-03-10T19:48:02.932Z,85.0
2023-03-10T19:50:03.064Z,85.0
2023-03-10T19:52:03.479Z,86.0
2023-03-10T19:54:03.814Z,86.0
2023-03-10T19:56:07.332Z,85.0
2023-03-10T19:58:02.949Z,84.0
2023-03-10T20:00:05.317Z,85.0
2023-03-10T20:02:02.838Z,84.0
2023-03-10T20:04:03.701Z,84.0
2023-03-10T20:06:04.597Z,85.0
2023-03-10T20:08:03.092Z,87.0
2023-03-10T20:10:03.851Z,85.0
2023-03-10T20:12:03.544Z,86.0
2023-03-10T20:14:03.239Z,85.0
2023-03-10T20:16:04.137Z,84.0
2023-03-10T20:18:02.686Z,83.0
2023-03-10T20:20:09.509Z,83.0
2023-03-10T20:22:02.974Z,82.0
2023-03-10T20:24:03.505Z,82.0
2023-03-10T20:26:05.663Z,81.0
2023-03-10T20:28:02.697Z,82.0
2023-03-10T20:30:06.967Z,82.0
2023-03-10T20:32:04.127Z,81.0
2023-03-10T20:34:05.760Z,82.0
2023-03-10T20:36:03.978Z,81.0
2023-03-10T20:38:03.147Z,83.0
2023-03-10T20:40:02.876Z,79.0
2023-03-10T20:42:03.542Z,83.0
2023-03-10T20:44:02.747Z,81.0
2023-03-10T20:46:02.976Z,78.0
2023-03-10T20:48:03.897Z,78.0
2023-03-10T20:50:03.959Z,79.0
2023-03-10T20:52:03.301Z,81.0
2023-03-10T20:54:03.041Z,83.0
2023-03-10T20:56:03.543Z,80.0
2023-03-10T20:58:03.143Z,78.0
2023-03-10T21:00:06.300Z,78.0
2023-03-10T21:02:02.867Z,79.0
2023-03-10T21:04:03.748Z,79.0
2023-03-10T21:06:03.220Z,78.0
2023-03-10T21:08:02.696Z,79.0
2023-03-10T21:10:03.962Z,80.0
2023-03-10T21:12:03.102Z,79.0
2023-03-10T21:14:03.019Z,81.0
2023-03-10T21:16:02.705Z,82.0
2023-03-10T21:18:03.579Z,82.0
2023-03-10T21:20:07.469Z,84.0
2023-03-10T21:22:03.498Z,83.0
2023-03-10T21:24:04.689Z,82.0
2023-03-10T21:26:08.651Z,84.0
2023-03-10T21:28:02.701Z,84.0
2023-03-10T21:30:06.665Z,82.0
2023-03-10T21:32:03.430Z,83.0
2023-03-10T21:34:04.029Z,82.0
2023-03-10T21:36:03.900Z,84.0
2023-03-10T21:38:03.735Z,82.0
2023-03-10T21:40:04.856Z,82.0
2023-03-10T21:42:03.687Z,83.0
2023-03-10T21:44:03.561Z,83.0
2023-03-10T21:46:02.974Z,83.0
2023-03-10T21:48:03.657Z,84.0
2023-03-10T21:50:03.043Z,82.0
2023-03-10T21:52:03.578Z,84.0
2023-03-10T21:54:04.536Z,83.0
2023-03-10T21:56:02.753Z,80.0
2023-03-10T21:58:05.140Z,83.0
2023-03-10T22:00:04.139Z,82.0
2023-03-10T22:02:03.159Z,80.0
2023-03-10T22:04:04.300Z,79.0
2023-03-10T22:06:04.422Z,81.0
2023-03-10T22:08:02.892Z,82.0
2023-03-10T22:10:04.119Z,80.0
2023-03-10T22:12:02.675Z,78.0
2023-03-10T22:14:02.984Z,80.0
2023-03-10T22:16:04.949Z,81.0
2023-03-10T22:18:03.514Z,83.0
2023-03-10T22:20:06.729Z,81.0
2023-03-10T22:22:02.922Z,80.0
2023-03-10T22:24:03.194Z,80.0
2023-03-10T22:26:02.956Z,79.0
2023-03-10T22:28:03.438Z,79.0
2023-03-10T22:30:03.627Z,80.0
2023-03-10T22:32:04.080Z,82.0
2023-03-10T22:34:03.643Z,82.0
2023-03-10T22:36:05.185Z,82.0
2023-03-10T22:38:04.765Z,82.0
2023-03-10T22:40:04.396Z,81.0
2023-03-10T22:42:04.401Z,81.0
2023-03-10T22:44:02.773Z,83.0
2023-03-10T22:46:08.710Z,82.0
2023-03-10T22:48:05.080Z,81.0
2023-03-10T22:50:03.455Z,81.0
2023-03-10T22:52:06.475Z,82.0
2023-03-10T22:54:02.661Z,80.0
2023-03-10T22:56:02.780Z,81.0
2023-03-10T22:58:03.996Z,83.0
2023-03-10T23:00:02.931Z,82.0
2023-03-10T23:02:03.069Z,79.0
2023-03-10T23:04:02.722Z,80.0
2023-03-10T23:06:05.434Z,80.0
2023-03-10T23:08:02.965Z,80.0
2023-03-10T23:10:07.018Z,80.0
2023-03-10T23:12:02.727Z,80.0
2023-03-10T23:14:03.501Z,80.0
2023-03-10T23:16:03.669Z,81.0
2023-03-10T23:18:04.005Z,81.0
2023-03-10T23:20:02.867Z,82.0
2023-03-10T23:22:03.472Z,81.0
2023-03-10T23:24:03.459Z,83.0
2023-03-10T23:26:03.588Z,82.0
2023-03-10T23:28:03.516Z,82.0
2023-03-10T23:30:04.271Z,82.0
2023-03-10T23:32:02.751Z,83.0
2023-03-10T23:34:03.967Z,83.0
2023-03-10T23:36:03.422Z,84.0
2023-03-10T23:38:05.523Z,84.0
2023-03-10T23:40:06.171Z,85.0
2023-03-10T23:42:03.499Z,86.0
2023-03-10T23:44:03.303Z,84.0
2023-03-10T23:46:04.327Z,83.0
2023-03-10T23:48:04.261Z,83.0
2023-03-10T23:50:04.721Z,85.0
2023-03-10T23:52:02.739Z,85.0
2023-03-10T23:54:02.654Z,86.0
2023-03-10T23:56:02.834Z,85.0
2023-03-10T23:58:04.549Z,86.0
